createdAt,value
2023-03-06T00:00:47.433Z,1.10
2023-03-06T00:03:15.499Z,1.02
2023-03-06T00:05:43.651Z,1.14
2023-03-06T00:08:12.139Z,1.17
2023-03-06T00:10:40.779Z,1.13
2023-03-06T00:13:12.436Z,0.85
2023-03-06T00:15:41.160Z,0.74
2023-03-06T00:18:09.431Z,0.91
2023-03-06T00:20:39.926Z,0.71
2023-03-06T00:23:08.941Z,0.59
2023-03-06T00:25:38.906Z,0.81
2023-03-06T00:28:06.960Z,0.89
2023-03-06T00:30:35.331Z,0.82
2023-03-06T00:33:03.251Z,0.63
2023-03-06T00:35:31.593Z,0.73
2023-03-06T00:38:00.002Z,0.84
2023-03-06T00:40:27.858Z,0.88
2023-03-06T00:42:55.813Z,0.69
2023-03-06T00:45:23.759Z,0.67
2023-03-06T00:47:51.792Z,0.83
2023-03-06T00:50:19.613Z,0.75
2023-03-06T00:52:47.747Z,0.50
2023-03-06T00:55:15.683Z,0.41
2023-03-06T00:57:43.696Z,0.51
2023-03-06T01:00:14.503Z,0.58
2023-03-06T01:02:42.614Z,0.65
2023-03-06T01:05:13.196Z,0.61
2023-03-06T01:07:41.488Z,0.66
2023-03-06T01:10:10.466Z,0.71
2023-03-06T01:12:38.349Z,0.67
2023-03-06T01:15:06.946Z,0.61
2023-03-06T01:17:35.889Z,0.59
2023-03-06T01:20:07.041Z,0.65
2023-03-06T01:22:34.924Z,0.61
2023-03-06T01:25:03.119Z,0.55
2023-03-06T01:27:31.077Z,0.59
2023-03-06T01:29:59.068Z,0.62
2023-03-06T01:32:26.898Z,0.61
2023-03-06T01:34:54.871Z,0.45
2023-03-06T01:37:22.731Z,0.28
2023-03-06T01:39:51.094Z,0.27
2023-03-06T01:42:19.125Z,0.26
2023-03-06T01:45:25.795Z,0.30
2023-03-06T01:47:53.636Z,0.34
2023-03-06T01:50:21.659Z,0.31
2023-03-06T01:52:53.966Z,0.19
2023-03-06T01:55:28.120Z,0.10
2023-03-06T01:58:00.896Z,0.06
2023-03-06T02:00:30.000Z,-0.22
2023-03-06T02:02:57.756Z,-0.12
2023-03-06T02:05:25.589Z,-0.20
2023-03-06T02:07:54.629Z,-0.18
2023-03-06T02:10:22.900Z,-0.12
2023-03-06T02:12:53.490Z,-0.22
2023-03-06T02:15:24.148Z,-0.51
2023-03-06T02:17:53.080Z,-0.22
2023-03-06T02:20:44.264Z,-0.14
2023-03-06T02:23:29.688Z,-0.12
2023-03-06T02:26:00.701Z,-0.09
2023-03-06T02:28:28.961Z,-0.06
2023-03-06T02:30:57.439Z,-0.10
2023-03-06T02:33:28.849Z,-0.12
2023-03-06T02:36:03.424Z,-0.08
2023-03-06T02:38:40.932Z,-0.09
2023-03-06T02:41:09.592Z,-0.13
2023-03-06T02:43:40.198Z,-0.06
2023-03-06T02:46:08.556Z,0.01
2023-03-06T02:48:36.606Z,-0.24
2023-03-06T02:51:04.601Z,-0.30
2023-03-06T02:53:33.385Z,-0.15
2023-03-06T02:57:27.677Z,-0.48
2023-03-06T02:59:57.267Z,-0.42
2023-03-06T03:02:25.841Z,-0.54
2023-03-06T03:04:53.894Z,-0.71
2023-03-06T03:07:21.981Z,-0.77
2023-03-06T03:09:50.401Z,-0.66
2023-03-06T03:12:18.422Z,-0.66
2023-03-06T03:14:46.466Z,-0.66
2023-03-06T03:17:15.198Z,-0.67
2023-03-06T03:19:43.133Z,-0.72
2023-03-06T03:22:11.026Z,-0.59
2023-03-06T03:24:40.253Z,-0.49
2023-03-06T03:27:10.559Z,-0.44
2023-03-06T03:29:38.661Z,-0.63
2023-03-06T03:32:07.280Z,-0.56
2023-03-06T03:34:35.738Z,-0.45
2023-03-06T03:37:03.822Z,-0.45
2023-03-06T03:39:31.984Z,-0.52
2023-03-06T03:41:59.992Z,-0.85
2023-03-06T03:44:28.795Z,-0.62
2023-03-06T03:46:57.304Z,-0.53
2023-03-06T03:49:25.982Z,-0.76
2023-03-06T03:51:54.445Z,-0.99
2023-03-06T03:54:23.865Z,-0.96
2023-03-06T03:56:53.854Z,-1.00
2023-03-06T03:59:28.475Z,-0.87
2023-03-06T04:02:15.604Z,-0.82
2023-03-06T04:04:51.875Z,-0.82
2023-03-06T04:07:20.440Z,-0.79
2023-03-06T04:09:49.360Z,-0.98
2023-03-06T04:12:19.233Z,-0.84
2023-03-06T04:14:48.201Z,-0.85
2023-03-06T04:17:16.550Z,-0.94
2023-03-06T04:19:45.272Z,-0.92
2023-03-06T04:22:13.434Z,-0.86
2023-03-06T04:24:41.847Z,-0.89
2023-03-06T04:27:12.308Z,-0.90
2023-03-06T04:29:40.729Z,-1.01
2023-03-06T04:32:09.590Z,-1.21
2023-03-06T04:34:38.510Z,-1.03
2023-03-06T04:37:12.022Z,-1.44
2023-03-06T04:39:40.143Z,-1.30
2023-03-06T04:42:08.112Z,-1.29
2023-03-06T04:44:36.168Z,-1.33
2023-03-06T04:47:04.350Z,-1.36
2023-03-06T04:49:32.584Z,-1.20
2023-03-06T04:52:00.422Z,-1.11
2023-03-06T04:54:28.275Z,-1.12
2023-03-06T04:56:56.425Z,-1.04
2023-03-06T04:59:24.356Z,-1.17
2023-03-06T05:01:52.523Z,-1.19
2023-03-06T05:04:20.450Z,-1.09
2023-03-06T05:06:49.781Z,-0.98
2023-03-06T05:09:17.834Z,-0.98
2023-03-06T05:11:45.777Z,-1.08
2023-03-06T05:14:13.815Z,-1.05
2023-03-06T05:16:41.724Z,-1.13
2023-03-06T05:19:09.713Z,-0.93
2023-03-06T05:21:37.634Z,-1.19
2023-03-06T05:24:05.912Z,-1.07
2023-03-06T05:26:35.057Z,-1.13
2023-03-06T05:29:03.324Z,-1.36
2023-03-06T05:31:31.540Z,-1.02
2023-03-06T05:33:59.612Z,-1.03
2023-03-06T05:36:27.938Z,-0.90
2023-03-06T05:38:56.225Z,-0.74
2023-03-06T05:41:24.238Z,-0.62
2023-03-06T05:43:53.530Z,-0.47
2023-03-06T05:46:21.309Z,-0.68
2023-03-06T05:48:49.242Z,-0.42
2023-03-06T05:51:17.230Z,-0.63
2023-03-06T05:53:45.095Z,-0.40
2023-03-06T05:56:13.576Z,-0.17
2023-03-06T05:58:41.778Z,-0.03
2023-03-06T06:01:12.665Z,-0.03
2023-03-06T06:03:40.943Z,-0.56
2023-03-06T06:06:10.776Z,-0.35
2023-03-06T06:08:39.207Z,-0.59
2023-03-06T06:11:09.988Z,-0.55
2023-03-06T06:13:39.144Z,-0.15
2023-03-06T06:16:12.939Z,-0.17
2023-03-06T06:18:41.512Z,-0.02
2023-03-06T06:21:11.643Z,0.32
2023-03-06T06:23:39.589Z,0.60
2023-03-06T06:26:08.912Z,0.92
2023-03-06T06:28:36.764Z,1.14
2023-03-06T06:31:13.367Z,1.34
2023-03-06T06:33:42.438Z,1.66
2023-03-06T06:36:19.827Z,1.98
2023-03-06T06:38:48.811Z,2.24
2023-03-06T06:44:11.550Z,2.60
2023-03-06T06:47:20.735Z,2.97
2023-03-06T06:49:27.721Z,3.16
2023-03-06T06:51:55.717Z,3.00
2023-03-06T06:54:24.050Z,2.76
2023-03-06T06:56:52.040Z,2.89
2023-03-06T06:59:20.435Z,2.70
2023-03-06T07:01:48.527Z,2.58
2023-03-06T07:04:18.307Z,2.97
2023-03-06T07:06:46.764Z,3.17
2023-03-06T07:09:14.760Z,3.28
2023-03-06T07:11:42.719Z,3.62
2023-03-06T07:14:10.748Z,3.89
2023-03-06T07:16:39.024Z,4.00
2023-03-06T07:19:07.896Z,3.92
2023-03-06T07:21:35.804Z,4.06
2023-03-06T07:24:04.917Z,4.34
2023-03-06T07:26:34.741Z,4.56
2023-03-06T07:29:03.989Z,4.96
2023-03-06T07:31:32.629Z,7.53
2023-03-06T07:34:02.528Z,11.32
2023-03-06T07:36:33.699Z,14.73
2023-03-06T07:39:01.965Z,17.28
2023-03-06T07:41:29.902Z,19.02
2023-03-06T07:43:57.985Z,21.17
2023-03-06T07:46:26.010Z,23.04
2023-03-06T07:48:54.248Z,22.34
2023-03-06T07:51:23.254Z,23.69
2023-03-06T07:53:51.339Z,25.09
2023-03-06T07:56:19.420Z,25.86
2023-03-06T07:58:48.308Z,26.63
2023-03-06T08:01:20.191Z,27.56
2023-03-06T08:03:52.763Z,27.50
2023-03-06T08:06:22.134Z,26.49
2023-03-06T08:08:51.833Z,25.21
2023-03-06T08:11:22.621Z,24.68
2023-03-06T08:13:53.020Z,24.16
2023-03-06T08:16:22.466Z,24.27
2023-03-06T08:18:51.664Z,25.58
2023-03-06T08:21:22.542Z,25.00
2023-03-06T08:23:51.430Z,24.27
2023-03-06T08:26:24.214Z,24.56
2023-03-06T08:28:54.121Z,24.82
2023-03-06T08:31:27.973Z,25.27
2023-03-06T08:33:57.734Z,25.12
2023-03-06T08:36:25.921Z,25.43
2023-03-06T08:38:54.883Z,26.16
2023-03-06T08:41:23.002Z,27.23
2023-03-06T08:43:51.512Z,27.90
2023-03-06T08:46:22.217Z,28.77
2023-03-06T08:48:50.097Z,28.13
2023-03-06T08:51:19.750Z,26.78
2023-03-06T08:53:48.260Z,26.08
2023-03-06T08:56:23.309Z,26.52
2023-03-06T08:58:52.669Z,27.55
2023-03-06T09:01:29.587Z,27.38
2023-03-06T09:04:07.717Z,24.95
2023-03-06T09:06:39.245Z,23.82
2023-03-06T09:09:07.884Z,24.00
2023-03-06T09:11:36.590Z,24.66
2023-03-06T09:14:05.744Z,26.10
2023-03-06T09:16:33.945Z,26.37
2023-03-06T09:19:02.077Z,26.08
2023-03-06T09:21:30.062Z,24.46
2023-03-06T09:23:59.367Z,24.24
2023-03-06T09:26:39.744Z,24.14
2023-03-06T09:29:16.569Z,23.16
2023-03-06T09:31:45.529Z,21.92
2023-03-06T09:34:13.851Z,20.34
2023-03-06T09:36:55.518Z,20.36
2023-03-06T09:39:26.631Z,21.23
2023-03-06T09:41:57.496Z,22.37
2023-03-06T09:44:31.570Z,22.77
2023-03-06T09:47:36.548Z,23.07
2023-03-06T09:50:32.774Z,22.96
2023-03-06T09:53:28.987Z,22.26
2023-03-06T09:56:24.806Z,21.28
2023-03-06T09:58:59.699Z,22.26
2023-03-06T10:01:35.217Z,22.79
2023-03-06T10:04:16.358Z,23.77
2023-03-06T10:06:50.532Z,24.88
2023-03-06T10:09:43.535Z,25.86
2023-03-06T10:12:28.811Z,25.36
2023-03-06T10:15:02.093Z,24.90
2023-03-06T10:17:36.028Z,24.63
2023-03-06T10:20:16.446Z,24.53
2023-03-06T10:23:22.309Z,22.36
2023-03-06T10:26:20.227Z,22.50
2023-03-06T10:29:06.601Z,21.81
2023-03-06T10:31:35.208Z,20.53
2023-03-06T10:34:23.068Z,19.92
2023-03-06T10:36:51.836Z,19.37
2023-03-06T10:39:22.693Z,18.87
2023-03-06T10:41:50.644Z,18.53
2023-03-06T10:44:20.652Z,18.88
2023-03-06T10:46:51.886Z,19.21
2023-03-06T10:49:33.485Z,20.59
2023-03-06T10:52:03.198Z,21.65
2023-03-06T10:54:40.157Z,21.18
2023-03-06T10:57:31.287Z,22.04
2023-03-06T11:00:08.531Z,22.19
2023-03-06T11:02:41.286Z,22.44
2023-03-06T11:05:20.665Z,21.65
2023-03-06T11:08:00.140Z,21.39
2023-03-06T11:10:30.035Z,22.49
2023-03-06T11:13:03.135Z,22.26
2023-03-06T11:15:32.329Z,21.88
2023-03-06T11:18:01.546Z,21.43
2023-03-06T11:20:48.658Z,21.09
2023-03-06T11:23:45.955Z,22.25
2023-03-06T11:26:16.736Z,22.63
2023-03-06T11:28:57.840Z,22.16
2023-03-06T11:31:35.949Z,20.54
2023-03-06T11:34:14.398Z,19.17
2023-03-06T11:37:06.603Z,17.55
2023-03-06T11:39:45.170Z,16.70
2023-03-06T11:42:18.843Z,16.68
2023-03-06T11:45:17.611Z,16.58
2023-03-06T11:47:59.351Z,16.23
2023-03-06T11:50:39.762Z,16.30
2023-03-06T11:53:11.936Z,16.17
2023-03-06T11:56:03.717Z,16.12
2023-03-06T11:58:56.736Z,16.24
2023-03-06T12:01:36.473Z,16.38
2023-03-06T12:04:17.957Z,15.98
2023-03-06T12:07:06.613Z,16.30
2023-03-06T12:10:02.768Z,16.69
2023-03-06T12:13:08.329Z,17.24
2023-03-06T12:15:36.273Z,17.14
2023-03-06T12:18:34.159Z,17.75
2023-03-06T12:21:12.968Z,18.54
2023-03-06T12:23:56.624Z,18.31
2023-03-06T12:27:02.372Z,18.03
2023-03-06T12:29:41.739Z,17.67
2023-03-06T12:32:32.631Z,16.73
2023-03-06T12:35:35.549Z,15.89
2023-03-06T12:38:31.273Z,15.76
2023-03-06T12:41:35.715Z,15.89
2023-03-06T12:44:22.248Z,16.20
2023-03-06T12:46:58.071Z,16.03
2023-03-06T12:49:33.300Z,16.30
2023-03-06T12:52:02.659Z,16.42
2023-03-06T12:54:34.018Z,16.66
2023-03-06T12:57:03.009Z,16.50
2023-03-06T12:59:44.765Z,16.13
2023-03-06T13:02:39.920Z,15.91
2023-03-06T13:05:31.762Z,15.76
2023-03-06T13:08:48.784Z,15.74
2023-03-06T13:11:38.056Z,15.50
2023-03-06T13:14:25.665Z,15.38
2023-03-06T13:16:54.471Z,15.19
2023-03-06T13:19:25.559Z,15.00
2023-03-06T13:21:56.643Z,15.06
2023-03-06T13:24:34.868Z,14.99
2023-03-06T13:27:06.317Z,14.67
2023-03-06T13:29:37.196Z,14.83
2023-03-06T13:32:13.948Z,14.86
2023-03-06T13:34:48.753Z,14.98
2023-03-06T13:37:25.318Z,14.24
2023-03-06T13:39:57.017Z,13.72
2023-03-06T13:42:47.946Z,13.92
2023-03-06T13:45:38.883Z,13.81
2023-03-06T13:48:30.264Z,13.61
2023-03-06T13:50:56.624Z,13.67
2023-03-06T13:53:53.194Z,13.73
2023-03-06T13:56:21.190Z,13.67
2023-03-06T13:59:04.320Z,13.63
2023-03-06T14:02:00.621Z,13.75
2023-03-06T14:04:54.978Z,13.94
2023-03-06T14:07:29.162Z,13.81
2023-03-06T14:10:24.911Z,13.97
2023-03-06T14:13:15.229Z,13.97
2023-03-06T14:15:47.738Z,13.87
2023-03-06T14:18:29.964Z,13.70
2023-03-06T14:21:03.802Z,13.30
2023-03-06T14:23:42.581Z,13.00
2023-03-06T14:26:23.593Z,13.00
2023-03-06T14:28:59.453Z,13.03
2023-03-06T14:31:37.799Z,13.05
2023-03-06T14:34:08.935Z,12.98
2023-03-06T14:36:43.755Z,12.88
2023-03-06T14:39:33.566Z,12.85
2023-03-06T14:42:16.541Z,12.69
2023-03-06T14:44:46.277Z,12.42
2023-03-06T14:47:27.653Z,12.33
2023-03-06T14:50:21.907Z,12.55
2023-03-06T14:52:52.695Z,12.63
2023-03-06T14:55:24.015Z,12.62
2023-03-06T14:58:02.750Z,12.75
2023-03-06T15:00:36.765Z,12.53
2023-03-06T15:03:28.467Z,12.11
2023-03-06T15:05:57.449Z,12.31
2023-03-06T15:08:31.807Z,12.19
2023-03-06T15:11:03.952Z,12.27
2023-03-06T15:13:34.356Z,11.86
2023-03-06T15:16:04.738Z,12.08
2023-03-06T15:18:35.628Z,12.15
2023-03-06T15:21:11.393Z,12.12
2023-03-06T15:23:44.667Z,12.12
2023-03-06T15:26:37.182Z,12.03
2023-03-06T15:29:11.203Z,11.88
2023-03-06T15:31:42.666Z,11.94
2023-03-06T15:34:11.026Z,11.84
2023-03-06T15:36:40.372Z,11.79
2023-03-06T15:39:27.755Z,11.66
2023-03-06T15:42:01.169Z,11.67
2023-03-06T15:44:33.111Z,11.69
2023-03-06T15:47:09.448Z,11.55
2023-03-06T15:49:40.526Z,11.45
2023-03-06T15:52:09.450Z,11.51
2023-03-06T15:54:37.942Z,11.55
2023-03-06T15:57:14.508Z,11.33
2023-03-06T15:59:45.292Z,11.38
2023-03-06T16:02:20.157Z,11.19
2023-03-06T16:04:49.559Z,11.09
2023-03-06T16:07:18.824Z,11.15
2023-03-06T16:09:47.817Z,10.96
2023-03-06T16:12:17.838Z,10.88
2023-03-06T16:14:50.202Z,10.56
2023-03-06T16:17:18.767Z,10.33
2023-03-06T16:19:47.907Z,10.22
2023-03-06T16:22:16.026Z,10.12
2023-03-06T16:24:44.027Z,10.09
2023-03-06T16:27:19.562Z,10.17
2023-03-06T16:29:48.229Z,10.06
2023-03-06T16:32:16.984Z,10.11
2023-03-06T16:34:48.010Z,9.85
2023-03-06T16:37:16.832Z,9.79
2023-03-06T16:39:45.308Z,9.61
2023-03-06T16:42:13.675Z,9.59
2023-03-06T16:44:42.073Z,9.58
2023-03-06T16:47:13.202Z,9.39
2023-03-06T16:49:41.712Z,9.25
2023-03-06T16:52:11.684Z,9.19
2023-03-06T16:54:40.166Z,9.16
2023-03-06T16:57:10.484Z,8.95
2023-03-06T16:59:38.847Z,8.68
2023-03-06T17:02:07.441Z,8.71
2023-03-06T17:04:35.584Z,8.88
2023-03-06T17:07:04.031Z,8.70
2023-03-06T17:09:32.691Z,8.83
2023-03-06T17:12:01.642Z,8.27
2023-03-06T17:14:30.338Z,8.74
2023-03-06T17:16:59.146Z,8.83
2023-03-06T17:19:27.632Z,9.01
2023-03-06T17:21:56.106Z,8.91
2023-03-06T17:24:24.771Z,8.96
2023-03-06T17:26:53.266Z,8.88
2023-03-06T17:29:23.064Z,8.90
2023-03-06T17:31:51.682Z,8.76
2023-03-06T17:34:20.174Z,8.91
2023-03-06T17:36:48.265Z,8.77
2023-03-06T17:39:16.743Z,8.98
2023-03-06T17:41:46.456Z,9.17
2023-03-06T17:44:20.150Z,9.26
2023-03-06T17:46:50.304Z,8.92
2023-03-06T17:49:21.933Z,8.78
2023-03-06T17:51:50.424Z,9.06
2023-03-06T17:54:19.248Z,9.08
2023-03-06T17:56:47.705Z,9.07
2023-03-06T17:59:16.575Z,9.05
2023-03-06T18:01:45.423Z,9.08
2023-03-06T18:04:13.611Z,9.03
2023-03-06T18:06:42.911Z,8.99
2023-03-06T18:09:11.304Z,8.61
2023-03-06T18:11:39.703Z,8.64
2023-03-06T18:14:08.060Z,8.71
2023-03-06T18:16:36.879Z,8.68
2023-03-06T18:19:05.322Z,8.44
2023-03-06T18:21:33.813Z,8.34
2023-03-06T18:24:02.198Z,8.38
2023-03-06T18:26:30.902Z,8.04
2023-03-06T18:29:04.094Z,7.97
2023-03-06T18:31:35.403Z,8.04
2023-03-06T18:34:10.192Z,7.82
2023-03-06T18:36:39.995Z,7.97
2023-03-06T18:39:11.716Z,7.97
2023-03-06T18:41:40.707Z,7.84
2023-03-06T18:44:09.441Z,7.87
2023-03-06T18:46:38.649Z,7.91
2023-03-06T18:49:07.650Z,7.45
2023-03-06T18:51:36.333Z,7.59
2023-03-06T18:54:06.200Z,7.57
2023-03-06T18:56:35.269Z,7.40
2023-03-06T18:59:05.775Z,7.41
2023-03-06T19:01:35.334Z,6.94
2023-03-06T19:04:05.156Z,7.19
2023-03-06T19:06:34.038Z,7.05
2023-03-06T19:09:02.630Z,7.12
2023-03-06T19:11:32.562Z,7.04
2023-03-06T19:14:01.180Z,7.07
2023-03-06T19:16:31.558Z,7.08
2023-03-06T19:19:00.172Z,6.91
2023-03-06T19:21:29.207Z,6.99
2023-03-06T19:23:57.850Z,6.75
2023-03-06T19:26:28.333Z,6.72
2023-03-06T19:28:56.916Z,6.69
2023-03-06T19:31:27.744Z,6.73
2023-03-06T19:33:57.407Z,6.62
2023-03-06T19:36:33.614Z,6.48
2023-03-06T19:39:06.638Z,6.66
2023-03-06T19:41:35.666Z,6.61
2023-03-06T19:44:06.210Z,6.71
2023-03-06T19:46:36.546Z,6.54
2023-03-06T19:49:11.985Z,6.43
2023-03-06T19:51:40.548Z,6.54
2023-03-06T19:54:12.075Z,6.50
2023-03-06T19:56:41.186Z,6.55
2023-03-06T19:59:09.523Z,6.57
2023-03-06T20:01:39.150Z,6.42
2023-03-06T20:04:08.175Z,6.54
2023-03-06T20:06:39.609Z,6.53
2023-03-06T20:09:09.846Z,6.63
2023-03-06T20:11:38.828Z,6.70
2023-03-06T20:14:09.247Z,6.92
2023-03-06T20:16:38.432Z,6.84
2023-03-06T20:19:08.995Z,6.92
2023-03-06T20:21:38.573Z,6.89
2023-03-06T20:24:08.919Z,7.02
2023-03-06T20:26:38.942Z,7.11
2023-03-06T20:29:07.887Z,6.96
2023-03-06T20:31:36.653Z,6.74
2023-03-06T20:34:05.450Z,6.89
2023-03-06T20:36:40.709Z,6.99
2023-03-06T20:39:09.752Z,6.85
2023-03-06T20:41:38.131Z,6.86
2023-03-06T20:44:08.244Z,6.90
2023-03-06T20:46:36.989Z,6.97
2023-03-06T20:49:05.385Z,7.05
2023-03-06T20:51:39.012Z,7.07
2023-03-06T20:54:10.789Z,6.93
2023-03-06T20:56:41.464Z,6.52
2023-03-06T20:59:12.299Z,6.63
2023-03-06T21:01:43.193Z,6.64
2023-03-06T21:04:16.366Z,6.59
2023-03-06T21:06:47.261Z,6.38
2023-03-06T21:09:17.119Z,6.43
2023-03-06T21:11:46.569Z,6.19
2023-03-06T21:14:18.660Z,5.89
2023-03-06T21:16:46.764Z,6.17
2023-03-06T21:19:14.986Z,6.18
2023-03-06T21:21:42.868Z,6.23
2023-03-06T21:24:11.117Z,6.27
2023-03-06T21:26:39.330Z,6.30
2023-03-06T21:29:07.506Z,6.36
2023-03-06T21:31:36.754Z,6.45
2023-03-06T21:34:05.631Z,6.43
2023-03-06T21:36:33.886Z,6.44
2023-03-06T21:39:02.700Z,6.42
2023-03-06T21:41:32.395Z,6.48
2023-03-06T21:44:03.659Z,6.12
2023-03-06T21:46:32.752Z,6.16
2023-03-06T21:49:04.749Z,6.25
2023-03-06T21:51:33.661Z,6.15
2023-03-06T21:54:02.498Z,5.99
2023-03-06T21:56:31.176Z,6.07
2023-03-06T21:58:59.511Z,6.02
2023-03-06T22:01:29.466Z,6.08
2023-03-06T22:03:58.918Z,6.14
2023-03-06T22:06:28.686Z,6.18
2023-03-06T22:08:58.612Z,5.91
2023-03-06T22:11:29.985Z,5.81
2023-03-06T22:13:58.377Z,5.76
2023-03-06T22:16:26.642Z,5.67
2023-03-06T22:18:54.760Z,5.61
2023-03-06T22:21:23.703Z,5.78
2023-03-06T22:23:54.123Z,5.70
2023-03-06T22:26:22.390Z,5.91
2023-03-06T22:28:50.565Z,5.97
2023-03-06T22:31:24.563Z,6.07
2023-03-06T22:33:54.372Z,6.07
2023-03-06T22:36:23.618Z,6.04
2023-03-06T22:38:56.136Z,5.90
2023-03-06T22:41:26.966Z,5.84
2023-03-06T22:43:59.893Z,5.73
2023-03-06T22:46:28.988Z,5.78
2023-03-06T22:48:58.296Z,5.93
2023-03-06T22:51:27.205Z,6.04
2023-03-06T22:53:55.706Z,5.96
2023-03-06T22:56:24.428Z,6.07
2023-03-06T22:58:52.419Z,5.87
2023-03-06T23:01:49.561Z,6.11
2023-03-06T23:04:17.609Z,6.21
2023-03-06T23:06:47.223Z,6.05
2023-03-06T23:09:21.649Z,6.18
2023-03-06T23:16:33.610Z,6.60
2023-03-06T23:19:19.982Z,6.54
2023-03-06T23:22:08.988Z,6.58
2023-03-06T23:24:55.212Z,6.77
2023-03-06T23:27:23.103Z,6.81
2023-03-06T23:29:51.188Z,6.63
2023-03-06T23:32:19.269Z,6.83
2023-03-06T23:34:50.015Z,6.87
2023-03-06T23:37:17.975Z,6.83
2023-03-06T23:39:47.125Z,6.93
2023-03-06T23:42:15.088Z,6.92
2023-03-06T23:44:43.112Z,6.90
2023-03-06T23:47:11.136Z,6.91
2023-03-06T23:49:40.205Z,6.75
2023-03-06T23:52:08.514Z,6.81
2023-03-06T23:54:36.440Z,6.82
2023-03-06T23:57:04.397Z,6.75
2023-03-06T23:59:32.421Z,6.00
